createdAt,value
2023-01-23T00:00:04.755Z,95.50
2023-01-23T00:03:01.571Z,87.82
2023-01-23T00:05:59.094Z,81.85
2023-01-23T00:08:48.582Z,79.25
2023-01-23T00:11:37.885Z,86.55
2023-01-23T00:14:28.548Z,83.00
2023-01-23T00:17:17.987Z,84.93
2023-01-23T00:20:08.683Z,86.18
2023-01-23T00:22:57.887Z,100.95
2023-01-23T00:25:47.083Z,63.78
2023-01-23T00:28:36.811Z,63.53
2023-01-23T00:31:31.629Z,62.10
2023-01-23T00:34:21.100Z,58.58
2023-01-23T00:37:10.724Z,46.47
2023-01-23T00:40:00.051Z,52.97
2023-01-23T00:42:49.326Z,61.78
2023-01-23T00:45:39.548Z,64.05
2023-01-23T00:48:30.220Z,72.18
2023-01-23T00:51:20.102Z,77.43
2023-01-23T00:54:09.310Z,74.93
2023-01-23T00:56:58.667Z,77.50
2023-01-23T00:59:47.894Z,76.00
2023-01-23T01:02:37.220Z,72.45
2023-01-23T01:05:28.759Z,71.90
2023-01-23T01:08:18.248Z,68.82
2023-01-23T01:11:08.248Z,65.93
2023-01-23T01:13:58.086Z,62.38
2023-01-23T01:16:47.372Z,60.92
2023-01-23T01:19:36.749Z,61.00
2023-01-23T01:22:27.579Z,59.60
2023-01-23T01:25:17.933Z,58.65
2023-01-23T01:28:09.384Z,58.95
2023-01-23T01:30:59.413Z,56.67
2023-01-23T01:33:50.626Z,66.75
2023-01-23T01:36:41.285Z,91.65
2023-01-23T01:39:31.919Z,77.72
2023-01-23T01:42:21.187Z,78.18
2023-01-23T01:46:05.135Z,84.20
2023-01-23T01:49:07.397Z,82.30
2023-01-23T01:52:00.768Z,84.90
2023-01-23T01:54:55.389Z,94.47
2023-01-23T01:57:48.983Z,102.18
2023-01-23T02:00:38.378Z,80.90
2023-01-23T02:03:28.239Z,80.90
2023-01-23T02:06:17.766Z,74.43
2023-01-23T02:09:17.492Z,75.65
2023-01-23T02:12:09.961Z,78.90
2023-01-23T02:14:59.645Z,86.70
2023-01-23T02:17:51.768Z,90.40
2023-01-23T02:20:42.318Z,85.70
2023-01-23T02:23:44.457Z,78.95
2023-01-23T02:26:44.233Z,71.40
2023-01-23T02:29:45.192Z,99.72
2023-01-23T02:32:35.906Z,84.10
2023-01-23T02:35:29.242Z,78.05
2023-01-23T02:38:31.541Z,295.52
2023-01-23T02:41:27.086Z,103.55
2023-01-23T02:44:26.357Z,86.57
2023-01-23T02:47:19.101Z,82.18
2023-01-23T02:50:09.485Z,71.03
2023-01-23T02:52:59.230Z,65.45
2023-01-23T02:55:48.488Z,67.28
2023-01-23T02:58:55.410Z,67.95
2023-01-23T03:01:46.201Z,65.13
2023-01-23T03:04:35.706Z,76.00
2023-01-23T03:07:24.931Z,69.10
2023-01-23T03:10:14.607Z,74.18
2023-01-23T03:13:09.340Z,66.70
2023-01-23T03:15:58.696Z,65.65
2023-01-23T03:18:54.702Z,59.92
2023-01-23T03:21:45.119Z,51.28
2023-01-23T03:24:36.408Z,50.35
2023-01-23T03:27:25.899Z,51.95
2023-01-23T03:30:20.512Z,53.40
2023-01-23T03:33:11.169Z,48.78
2023-01-23T03:36:02.437Z,49.45
2023-01-23T03:39:09.026Z,46.65
2023-01-23T03:41:58.676Z,47.35
2023-01-23T03:44:53.207Z,48.58
2023-01-23T03:47:46.399Z,48.38
2023-01-23T03:50:35.585Z,49.28
2023-01-23T03:53:26.434Z,51.45
2023-01-23T03:56:15.944Z,48.67
2023-01-23T03:59:05.900Z,56.70
2023-01-23T04:01:58.166Z,53.08
2023-01-23T04:04:47.622Z,57.92
2023-01-23T04:07:37.006Z,62.05
2023-01-23T04:10:27.844Z,63.88
2023-01-23T04:13:22.910Z,62.53
2023-01-23T04:16:12.423Z,74.57
2023-01-23T04:19:01.713Z,72.75
2023-01-23T04:21:51.668Z,75.60
2023-01-23T04:24:41.788Z,75.65
2023-01-23T04:27:33.248Z,75.20
2023-01-23T04:30:23.813Z,75.18
2023-01-23T04:33:13.880Z,74.03
2023-01-23T04:36:07.496Z,79.93
2023-01-23T04:38:57.308Z,77.97
2023-01-23T04:41:48.983Z,82.88
2023-01-23T04:44:59.842Z,75.57
2023-01-23T04:51:01.180Z,63.45
2023-01-23T04:53:50.829Z,71.35
2023-01-23T04:56:40.100Z,73.03
2023-01-23T04:59:32.150Z,75.22
2023-01-23T05:02:22.946Z,76.40
2023-01-23T05:05:12.822Z,80.55
2023-01-23T05:08:02.427Z,72.30
2023-01-23T05:10:52.474Z,77.00
2023-01-23T05:13:42.726Z,79.05
2023-01-23T05:16:31.998Z,82.40
2023-01-23T05:19:45.454Z,78.80
2023-01-23T05:22:34.795Z,80.13
2023-01-23T05:25:27.723Z,76.63
2023-01-23T05:28:18.795Z,77.45
2023-01-23T05:31:13.485Z,80.68
2023-01-23T05:34:09.935Z,77.05
2023-01-23T05:37:03.764Z,78.25
2023-01-23T05:39:56.711Z,78.90
2023-01-23T05:42:48.171Z,75.32
2023-01-23T05:46:00.673Z,72.65
2023-01-23T05:49:10.395Z,75.57
2023-01-23T05:51:59.959Z,73.90
2023-01-23T05:54:51.180Z,71.45
2023-01-23T05:57:41.344Z,69.10
2023-01-23T06:00:49.243Z,66.75
2023-01-23T06:04:04.170Z,65.85
2023-01-23T06:07:15.925Z,60.25
2023-01-23T06:10:09.918Z,60.50
2023-01-23T06:12:59.579Z,61.30
2023-01-23T06:15:48.971Z,61.90
2023-01-23T06:18:40.286Z,68.13
2023-01-23T06:21:30.447Z,66.75
2023-01-23T06:24:20.854Z,58.88
2023-01-23T06:27:12.670Z,62.78
2023-01-23T06:30:02.036Z,64.82
2023-01-23T06:32:51.441Z,58.97
2023-01-23T06:35:46.773Z,62.45
2023-01-23T06:38:36.763Z,62.50
2023-01-23T06:41:29.498Z,58.05
2023-01-23T06:44:25.402Z,53.30
2023-01-23T06:47:16.987Z,51.95
2023-01-23T06:50:12.127Z,53.15
2023-01-23T06:53:01.892Z,49.30
2023-01-23T06:55:51.472Z,50.53
2023-01-23T06:58:41.095Z,48.67
2023-01-23T07:01:41.282Z,46.80
2023-01-23T07:04:42.279Z,38.25
2023-01-23T07:07:33.739Z,37.95
2023-01-23T07:10:24.076Z,43.63
2023-01-23T07:13:14.055Z,41.50
2023-01-23T07:16:03.481Z,42.65
2023-01-23T07:18:54.312Z,43.83
2023-01-23T07:21:43.687Z,46.15
2023-01-23T07:24:33.178Z,45.08
2023-01-23T07:27:22.737Z,47.90
2023-01-23T07:30:13.564Z,50.42
2023-01-23T07:33:03.083Z,46.00
2023-01-23T07:35:53.744Z,47.30
2023-01-23T07:38:43.064Z,47.95
2023-01-23T07:41:32.334Z,52.45
2023-01-23T07:44:25.228Z,48.13
2023-01-23T07:47:14.381Z,52.47
2023-01-23T07:50:03.975Z,50.95
2023-01-23T07:52:56.836Z,48.90
2023-01-23T07:55:46.257Z,49.28
2023-01-23T07:58:35.677Z,48.63
2023-01-23T08:01:24.892Z,51.05
2023-01-23T08:04:14.264Z,51.97
2023-01-23T08:07:03.589Z,56.20
2023-01-23T08:09:54.308Z,56.58
2023-01-23T08:12:43.563Z,47.28
2023-01-23T08:15:32.770Z,47.38
2023-01-23T08:18:22.200Z,56.42
2023-01-23T08:21:11.975Z,45.92
2023-01-23T08:24:04.967Z,44.90
2023-01-23T08:29:45.052Z,37.25
2023-01-23T08:32:36.408Z,33.65
2023-01-23T08:35:25.602Z,36.70
2023-01-23T08:38:14.876Z,38.55
2023-01-23T08:41:05.230Z,40.92
2023-01-23T08:43:57.615Z,40.30
2023-01-23T08:46:47.525Z,47.20
2023-01-23T08:49:36.855Z,45.15
2023-01-23T08:52:26.176Z,49.35
2023-01-23T08:55:15.595Z,50.70
2023-01-23T08:58:05.023Z,54.85
2023-01-23T09:00:55.842Z,59.35
2023-01-23T09:03:45.613Z,54.22
2023-01-23T09:06:35.015Z,59.10
2023-01-23T09:09:24.246Z,58.58
2023-01-23T09:12:13.547Z,56.35
2023-01-23T09:15:02.830Z,53.10
2023-01-23T09:17:53.478Z,53.88
2023-01-23T09:20:42.755Z,58.47
2023-01-23T09:23:31.914Z,57.80
2023-01-23T09:26:21.194Z,66.18
2023-01-23T09:29:10.591Z,70.68
2023-01-23T09:31:59.838Z,72.15
2023-01-23T09:34:50.525Z,71.07
2023-01-23T09:37:59.926Z,72.57
2023-01-23T09:40:52.925Z,68.05
2023-01-23T09:43:51.053Z,65.47
2023-01-23T09:46:47.785Z,67.22
2023-01-23T09:49:48.405Z,67.60
2023-01-23T09:52:46.002Z,69.45
2023-01-23T09:55:44.159Z,66.22
2023-01-23T09:58:40.620Z,67.82
2023-01-23T10:01:32.869Z,68.18
2023-01-23T10:04:23.569Z,71.20
2023-01-23T10:08:07.007Z,70.05
2023-01-23T10:11:00.478Z,65.32
2023-01-23T10:14:03.757Z,71.68
2023-01-23T10:17:05.852Z,74.00
2023-01-23T10:20:21.564Z,72.20
2023-01-23T10:23:27.740Z,74.80
2023-01-23T10:26:23.382Z,76.28
2023-01-23T10:29:22.064Z,85.38
2023-01-23T10:32:25.976Z,85.22
2023-01-23T10:35:21.464Z,91.45
2023-01-23T10:38:28.027Z,86.72
2023-01-23T10:41:21.795Z,83.85
2023-01-23T10:44:17.722Z,90.88
2023-01-23T10:47:19.262Z,86.93
2023-01-23T10:50:09.282Z,84.85
2023-01-23T10:53:09.183Z,84.63
2023-01-23T10:56:02.520Z,85.07
2023-01-23T10:58:56.354Z,84.45
2023-01-23T11:02:03.864Z,85.18
2023-01-23T11:04:53.477Z,90.22
2023-01-23T11:07:42.879Z,88.72
2023-01-23T11:10:32.367Z,84.38
2023-01-23T11:13:31.240Z,82.68
2023-01-23T11:16:23.534Z,77.38
2023-01-23T11:19:24.085Z,82.93
2023-01-23T11:22:30.105Z,64.43
2023-01-23T11:25:31.680Z,66.18
2023-01-23T11:28:27.071Z,71.80
2023-01-23T11:31:22.555Z,76.63
2023-01-23T11:34:16.052Z,79.85
2023-01-23T11:37:14.296Z,78.45
2023-01-23T11:40:08.687Z,72.68
2023-01-23T11:42:58.098Z,71.20
2023-01-23T11:46:11.079Z,68.72
2023-01-23T11:49:20.049Z,66.85
2023-01-23T11:52:29.740Z,65.40
2023-01-23T11:55:53.435Z,63.60
2023-01-23T12:02:14.296Z,56.35
2023-01-23T12:06:18.882Z,60.30
2023-01-23T12:09:15.956Z,61.45
2023-01-23T12:12:16.422Z,62.80
2023-01-23T12:15:16.770Z,63.10
2023-01-23T12:18:24.106Z,64.63
2023-01-23T12:21:20.041Z,78.00
2023-01-23T12:24:22.463Z,58.85
2023-01-23T12:27:23.260Z,64.63
2023-01-23T12:30:50.390Z,58.95
2023-01-23T12:33:59.301Z,88.22
2023-01-23T12:37:19.273Z,81.05
2023-01-23T12:40:24.148Z,95.82
2023-01-23T12:43:19.970Z,106.65
2023-01-23T12:46:15.207Z,105.68
2023-01-23T12:49:26.415Z,98.78
2023-01-23T12:52:23.669Z,93.18
2023-01-23T12:55:22.705Z,95.68
2023-01-23T12:58:18.405Z,90.25
2023-01-23T13:01:21.837Z,88.70
2023-01-23T13:04:24.942Z,95.60
2023-01-23T13:07:40.100Z,91.07
2023-01-23T13:11:18.098Z,82.10
2023-01-23T13:14:19.241Z,100.68
2023-01-23T13:17:36.595Z,94.68
2023-01-23T13:20:48.493Z,92.55
2023-01-23T13:23:38.023Z,80.07
2023-01-23T13:26:32.670Z,79.47
2023-01-23T13:29:50.377Z,65.28
2023-01-23T13:32:39.572Z,48.38
2023-01-23T13:35:59.330Z,44.30
2023-01-23T13:39:23.220Z,47.47
2023-01-23T13:42:47.153Z,34.65
2023-01-23T13:45:37.753Z,43.85
2023-01-23T14:21:56.919Z,57.42
2023-01-23T14:24:50.034Z,41.50
2023-01-23T14:30:56.191Z,39.65
2023-01-23T14:33:46.532Z,48.95
2023-01-23T14:36:39.040Z,82.15
2023-01-23T14:39:31.545Z,105.47
2023-01-23T14:42:27.477Z,118.25
2023-01-23T14:45:17.090Z,119.55
2023-01-23T14:48:15.021Z,112.97
2023-01-23T14:51:11.336Z,111.07
2023-01-23T14:54:03.162Z,107.88
2023-01-23T14:56:54.250Z,119.78
2023-01-23T14:59:45.713Z,101.47
2023-01-23T15:02:36.604Z,108.50
2023-01-23T15:05:29.374Z,100.45
2023-01-23T15:08:23.932Z,102.38
2023-01-23T15:11:13.492Z,97.32
2023-01-23T15:14:03.739Z,97.10
2023-01-23T15:16:59.758Z,97.63
2023-01-23T15:19:55.425Z,101.82
2023-01-23T15:22:46.128Z,105.18
2023-01-23T15:25:35.495Z,107.22
2023-01-23T15:28:33.115Z,93.07
2023-01-23T15:31:29.805Z,67.80
2023-01-23T15:34:27.018Z,78.57
2023-01-23T15:37:25.656Z,80.18
2023-01-23T15:40:26.109Z,72.10
2023-01-23T15:43:20.569Z,71.82
2023-01-23T15:46:12.078Z,69.47
2023-01-23T15:49:01.380Z,75.88
2023-01-23T15:51:51.098Z,75.50
2023-01-23T15:54:40.553Z,79.15
2023-01-23T15:57:31.301Z,73.78
2023-01-23T16:00:25.791Z,79.43
2023-01-23T16:03:15.286Z,79.22
2023-01-23T16:06:06.296Z,84.93
2023-01-23T16:09:05.120Z,85.13
2023-01-23T16:11:55.114Z,77.85
2023-01-23T16:14:46.413Z,98.10
2023-01-23T16:17:36.929Z,100.30
2023-01-23T16:20:30.936Z,101.10
2023-01-23T16:23:24.869Z,111.32
2023-01-23T16:26:21.092Z,97.75
2023-01-23T16:29:26.323Z,84.95
2023-01-23T16:32:17.543Z,56.47
2023-01-23T16:35:08.496Z,61.05
2023-01-23T16:37:57.896Z,61.78
2023-01-23T16:40:47.294Z,81.72
2023-01-23T16:43:36.893Z,85.82
2023-01-23T16:46:26.281Z,86.63
2023-01-23T16:49:17.184Z,87.85
2023-01-23T16:52:06.829Z,91.35
2023-01-23T16:54:56.607Z,89.10
2023-01-23T16:57:46.176Z,89.95
2023-01-23T17:00:36.705Z,83.85
2023-01-23T17:03:31.455Z,84.25
2023-01-23T17:06:22.089Z,76.85
2023-01-23T17:09:12.944Z,80.00
2023-01-23T17:12:02.133Z,71.88
2023-01-23T17:14:53.076Z,78.78
2023-01-23T17:17:42.223Z,78.63
2023-01-23T17:20:31.441Z,103.38
2023-01-23T17:23:22.160Z,108.13
2023-01-23T17:26:18.567Z,101.80
2023-01-23T17:29:07.755Z,118.80
2023-01-23T17:31:57.751Z,105.63
2023-01-23T17:34:50.301Z,107.05
2023-01-23T17:37:40.583Z,108.55
2023-01-23T17:40:32.037Z,103.35
2023-01-23T17:43:23.446Z,145.10
2023-01-23T17:46:26.970Z,100.80
2023-01-23T17:49:30.565Z,106.05
2023-01-23T17:52:21.818Z,100.82
2023-01-23T17:55:15.886Z,86.75
2023-01-23T17:58:06.578Z,92.65
2023-01-23T18:00:56.228Z,94.70
2023-01-23T18:03:45.657Z,93.78
2023-01-23T18:06:34.966Z,94.80
2023-01-23T18:09:24.481Z,81.32
2023-01-23T18:12:19.284Z,77.32
2023-01-23T18:15:16.764Z,84.10
2023-01-23T18:18:22.460Z,90.70
2023-01-23T18:21:18.023Z,90.15
2023-01-23T18:24:11.932Z,87.75
2023-01-23T18:27:11.834Z,88.97
2023-01-23T18:30:21.083Z,83.13
2023-01-23T18:33:29.674Z,72.68
2023-01-23T18:36:37.283Z,90.68
2023-01-23T18:40:05.647Z,76.63
2023-01-23T18:43:02.948Z,77.68
2023-01-23T18:45:57.644Z,84.07
2023-01-23T18:48:49.647Z,84.70
2023-01-23T18:51:47.311Z,90.93
2023-01-23T18:54:45.426Z,88.32
2023-01-23T18:57:55.542Z,86.38
2023-01-23T19:00:51.151Z,86.47
2023-01-23T19:03:46.676Z,90.25
2023-01-23T19:06:37.377Z,90.65
2023-01-23T19:09:28.842Z,91.32
2023-01-23T19:12:28.327Z,101.70
2023-01-23T19:15:29.088Z,93.32
2023-01-23T19:18:48.497Z,93.35
2023-01-23T19:21:38.159Z,100.15
2023-01-23T19:24:28.469Z,91.57
2023-01-23T19:27:24.845Z,62.15
2023-01-23T19:30:15.833Z,54.58
2023-01-23T19:33:04.995Z,56.92
2023-01-23T19:35:56.721Z,62.35
2023-01-23T19:38:46.069Z,55.33
2023-01-23T19:41:43.091Z,67.15
2023-01-23T19:44:33.297Z,61.80
2023-01-23T19:47:22.594Z,73.90
2023-01-23T19:50:16.748Z,55.80
2023-01-23T19:53:07.365Z,79.47
2023-01-23T19:56:01.392Z,85.88
2023-01-23T19:58:51.267Z,93.05
2023-01-23T20:01:43.680Z,79.53
2023-01-23T20:04:33.035Z,60.53
2023-01-23T20:07:22.676Z,54.90
2023-01-23T20:10:14.288Z,81.93
2023-01-23T20:13:03.452Z,73.90
2023-01-23T20:15:52.664Z,68.13
2023-01-23T20:18:42.550Z,75.35
2023-01-23T20:21:31.999Z,73.15
2023-01-23T20:24:21.357Z,61.67
2023-01-23T20:27:12.040Z,56.15
2023-01-23T20:30:02.613Z,52.08
2023-01-23T20:32:52.049Z,48.05
2023-01-23T20:35:41.296Z,48.13
2023-01-23T20:38:30.742Z,51.45
2023-01-23T20:41:22.289Z,38.55
2023-01-23T20:44:13.004Z,45.38
2023-01-23T20:47:02.252Z,50.33
2023-01-23T20:49:51.531Z,47.05
2023-01-23T20:52:57.904Z,45.97
2023-01-23T20:55:47.113Z,39.60
2023-01-23T20:58:56.207Z,50.10
2023-01-23T21:02:05.347Z,46.15
2023-01-23T21:04:54.837Z,50.15
2023-01-23T21:07:44.044Z,45.30
2023-01-23T21:10:33.757Z,44.55
2023-01-23T21:13:23.274Z,57.95
2023-01-23T21:16:15.936Z,54.20
2023-01-23T21:19:06.714Z,61.97
2023-01-23T21:21:55.931Z,52.78
2023-01-23T21:24:45.218Z,60.53
2023-01-23T21:27:34.456Z,60.35
2023-01-23T21:30:23.734Z,60.53
2023-01-23T21:33:12.983Z,61.25
2023-01-23T21:36:03.657Z,64.75
2023-01-23T21:39:14.372Z,54.67
2023-01-23T21:42:03.634Z,60.53
2023-01-23T21:44:55.202Z,56.95
2023-01-23T21:47:44.559Z,55.13
2023-01-23T21:50:33.944Z,58.60
2023-01-23T21:53:24.964Z,54.85
2023-01-23T21:56:16.343Z,62.15
2023-01-23T21:59:05.953Z,55.80
2023-01-23T22:01:54.407Z,59.70
2023-01-23T22:04:43.669Z,57.30
2023-01-23T22:07:33.031Z,54.70
2023-01-23T22:10:23.657Z,51.95
2023-01-23T22:13:14.222Z,53.53
2023-01-23T22:16:04.616Z,47.22
2023-01-23T22:18:53.993Z,45.97
2023-01-23T22:21:43.864Z,45.67
2023-01-23T22:24:33.145Z,44.67
2023-01-23T22:27:24.223Z,51.45
2023-01-23T22:30:14.820Z,55.53
2023-01-23T22:33:04.020Z,56.42
2023-01-23T22:35:53.287Z,49.80
2023-01-23T22:38:42.565Z,52.95
2023-01-23T22:41:31.794Z,41.80
2023-01-23T22:44:22.479Z,65.20
2023-01-23T22:47:11.979Z,45.17
2023-01-23T22:50:01.355Z,46.78
2023-01-23T22:52:50.718Z,46.60
2023-01-23T22:55:39.909Z,49.08
2023-01-23T22:58:30.262Z,41.85
2023-01-23T23:01:25.388Z,46.45
2023-01-23T23:04:14.600Z,47.80
2023-01-23T23:07:03.955Z,49.03
2023-01-23T23:09:53.290Z,55.75
2023-01-23T23:12:42.544Z,52.08
2023-01-23T23:15:31.805Z,46.53
2023-01-23T23:18:22.497Z,44.72
2023-01-23T23:21:15.005Z,47.55
2023-01-23T23:24:07.011Z,45.22
2023-01-23T23:26:56.439Z,43.85
2023-01-23T23:29:45.699Z,46.67
2023-01-23T23:32:35.047Z,47.53
2023-01-23T23:35:25.653Z,45.03
2023-01-23T23:38:15.635Z,45.63
2023-01-23T23:41:08.073Z,46.33
2023-01-23T23:43:57.392Z,41.67
2023-01-23T23:46:46.687Z,33.97
2023-01-23T23:49:35.941Z,41.33
2023-01-23T23:52:26.680Z,41.90
2023-01-23T23:55:16.352Z,40.05
2023-01-23T23:58:05.695Z,40.03
